createdAt,value
2023-02-13T00:01:02.017Z,99.90
2023-02-13T00:03:04.461Z,99.90
2023-02-13T00:05:06.473Z,99.90
2023-02-13T00:07:08.420Z,99.90
2023-02-13T00:09:11.201Z,99.90
2023-02-13T00:11:13.007Z,99.90
2023-02-13T00:13:14.762Z,99.90
2023-02-13T00:15:16.590Z,99.90
2023-02-13T00:17:18.306Z,99.90
2023-02-13T00:19:19.975Z,99.90
2023-02-13T00:21:21.731Z,99.90
2023-02-13T00:23:23.445Z,99.90
2023-02-13T00:25:25.164Z,99.90
2023-02-13T00:27:26.872Z,99.90
2023-02-13T00:29:28.582Z,99.90
2023-02-13T00:31:30.330Z,99.90
2023-02-13T00:33:32.230Z,99.90
2023-02-13T00:35:33.852Z,99.90
2023-02-13T00:37:35.519Z,99.90
2023-02-13T00:39:37.193Z,99.90
2023-02-13T00:41:39.774Z,99.90
2023-02-13T00:43:41.532Z,99.90
2023-02-13T00:45:43.561Z,99.90
2023-02-13T00:47:45.258Z,99.90
2023-02-13T00:49:46.963Z,99.90
2023-02-13T00:51:48.610Z,99.90
2023-02-13T00:53:50.265Z,99.90
2023-02-13T00:55:52.357Z,99.90
2023-02-13T00:57:54.045Z,99.90
2023-02-13T00:59:55.697Z,99.90
2023-02-13T01:01:57.521Z,99.90
2023-02-13T01:03:59.322Z,99.90
2023-02-13T01:06:01.034Z,99.90
2023-02-13T01:08:02.725Z,99.90
2023-02-13T01:10:04.871Z,99.90
2023-02-13T01:12:07.056Z,99.90
2023-02-13T01:14:08.722Z,99.90
2023-02-13T01:16:10.463Z,99.90
2023-02-13T01:18:16.773Z,99.90
2023-02-13T01:20:18.498Z,99.90
2023-02-13T01:22:20.144Z,99.90
2023-02-13T01:24:21.865Z,99.90
2023-02-13T01:26:24.800Z,99.90
2023-02-13T01:28:26.910Z,99.90
2023-02-13T01:30:28.682Z,99.90
2023-02-13T01:32:30.385Z,99.90
2023-02-13T01:34:33.838Z,99.90
2023-02-13T01:36:35.629Z,99.90
2023-02-13T01:38:37.564Z,99.90
2023-02-13T01:40:54.361Z,99.90
2023-02-13T01:42:56.159Z,99.90
2023-02-13T01:45:03.770Z,99.90
2023-02-13T01:47:05.517Z,99.90
2023-02-13T01:49:18.632Z,99.90
2023-02-13T01:51:26.275Z,99.90
2023-02-13T01:53:33.567Z,99.90
2023-02-13T01:55:40.813Z,99.90
2023-02-13T01:57:47.375Z,99.90
2023-02-13T01:59:57.200Z,99.90
2023-02-13T02:02:01.193Z,99.90
2023-02-13T02:04:17.599Z,99.90
2023-02-13T02:06:26.285Z,99.90
2023-02-13T02:08:29.003Z,99.90
2023-02-13T02:10:32.516Z,99.90
2023-02-13T02:12:44.787Z,99.90
2023-02-13T02:14:47.443Z,99.90
2023-02-13T02:16:49.128Z,99.90
2023-02-13T02:18:50.846Z,99.90
2023-02-13T02:21:01.288Z,99.90
2023-02-13T02:23:24.900Z,99.90
2023-02-13T02:25:41.553Z,99.90
2023-02-13T02:28:26.141Z,99.90
2023-02-13T02:30:48.004Z,99.90
2023-02-13T02:33:18.414Z,99.90
2023-02-13T02:35:34.585Z,99.90
2023-02-13T02:37:42.252Z,99.90
2023-02-13T02:40:07.613Z,99.90
2023-02-13T02:42:32.989Z,99.90
2023-02-13T02:44:49.132Z,99.90
2023-02-13T02:47:23.140Z,99.90
2023-02-13T02:49:43.796Z,99.90
2023-02-13T02:52:17.752Z,99.90
2023-02-13T02:54:56.164Z,99.90
2023-02-13T02:57:06.120Z,99.90
2023-02-13T02:59:31.358Z,99.90
2023-02-13T03:01:53.236Z,99.90
2023-02-13T03:04:17.196Z,99.90
2023-02-13T03:06:22.607Z,99.90
2023-02-13T03:08:44.353Z,99.90
2023-02-13T03:11:06.097Z,99.90
2023-02-13T03:13:21.333Z,99.90
2023-02-13T03:15:25.450Z,99.90
2023-02-13T03:17:46.116Z,99.90
2023-02-13T03:20:21.234Z,99.90
2023-02-13T03:22:48.656Z,99.90
2023-02-13T03:25:14.660Z,99.90
2023-02-13T03:27:53.118Z,99.90
2023-02-13T03:30:08.392Z,99.90
2023-02-13T03:32:25.603Z,99.90
2023-02-13T03:34:54.001Z,99.90
2023-02-13T03:37:28.820Z,99.90
2023-02-13T03:39:47.909Z,99.90
2023-02-13T03:42:01.251Z,99.90
2023-02-13T03:44:25.876Z,99.90
2023-02-13T03:46:31.926Z,99.90
2023-02-13T03:48:55.735Z,99.90
2023-02-13T03:51:00.043Z,99.90
2023-02-13T03:53:10.854Z,99.90
2023-02-13T03:55:40.590Z,99.90
2023-02-13T03:58:03.137Z,99.90
2023-02-13T04:00:09.326Z,99.90
2023-02-13T04:02:14.654Z,99.90
2023-02-13T04:04:35.437Z,99.90
2023-02-13T04:07:05.235Z,99.90
2023-02-13T04:09:06.886Z,99.90
2023-02-13T04:12:03.058Z,99.90
2023-02-13T04:14:30.000Z,99.90
2023-02-13T04:16:36.733Z,99.90
2023-02-13T04:18:39.745Z,99.90
2023-02-13T04:20:41.537Z,99.90
2023-02-13T04:22:48.232Z,99.90
2023-02-13T04:24:50.115Z,99.90
2023-02-13T04:26:52.671Z,99.90
2023-02-13T04:28:54.312Z,99.90
2023-02-13T04:30:57.710Z,99.90
2023-02-13T04:32:59.545Z,99.90
2023-02-13T04:35:01.243Z,99.90
2023-02-13T04:37:03.110Z,99.90
2023-02-13T04:39:04.755Z,99.90
2023-02-13T04:41:06.411Z,99.90
2023-02-13T04:43:08.080Z,99.90
2023-02-13T04:45:10.045Z,99.90
2023-02-13T04:47:11.765Z,99.90
2023-02-13T04:49:13.688Z,99.90
2023-02-13T04:51:15.530Z,99.90
2023-02-13T04:53:17.208Z,99.90
2023-02-13T04:55:18.827Z,99.90
2023-02-13T04:57:20.460Z,99.90
2023-02-13T04:59:22.064Z,99.90
2023-02-13T05:01:23.837Z,99.90
2023-02-13T05:03:25.601Z,99.90
2023-02-13T05:05:27.250Z,99.90
2023-02-13T05:07:28.913Z,99.90
2023-02-13T05:09:30.582Z,99.90
2023-02-13T05:11:32.255Z,99.90
2023-02-13T05:13:34.199Z,99.90
2023-02-13T05:15:35.886Z,99.90
2023-02-13T05:17:37.571Z,99.90
2023-02-13T05:19:39.171Z,99.90
2023-02-13T05:21:59.501Z,99.90
2023-02-13T05:24:01.227Z,99.90
2023-02-13T05:26:03.046Z,99.90
2023-02-13T05:28:26.051Z,99.90
2023-02-13T05:30:27.836Z,99.90
2023-02-13T05:32:29.521Z,99.90
2023-02-13T05:34:31.166Z,99.90
2023-02-13T05:36:32.768Z,99.90
2023-02-13T05:38:34.500Z,99.90
2023-02-13T05:40:36.141Z,99.90
2023-02-13T05:42:37.813Z,99.90
2023-02-13T05:44:39.449Z,99.90
2023-02-13T05:46:42.428Z,99.90
2023-02-13T05:48:44.158Z,99.90
2023-02-13T05:50:47.819Z,99.90
2023-02-13T05:52:49.564Z,99.90
2023-02-13T05:54:51.560Z,99.90
2023-02-13T05:56:53.184Z,99.90
2023-02-13T05:58:56.123Z,99.90
2023-02-13T06:00:58.958Z,99.90
2023-02-13T06:03:00.842Z,99.90
2023-02-13T06:05:02.455Z,99.90
2023-02-13T06:07:04.200Z,99.90
2023-02-13T06:09:06.007Z,99.90
2023-02-13T06:11:08.512Z,99.90
2023-02-13T06:13:10.177Z,99.90
2023-02-13T06:15:12.522Z,99.90
2023-02-13T06:17:14.172Z,99.90
2023-02-13T06:19:15.813Z,99.90
2023-02-13T06:21:17.529Z,99.90
2023-02-13T06:23:19.361Z,99.90
2023-02-13T06:25:21.409Z,99.90
2023-02-13T06:27:23.231Z,99.90
2023-02-13T06:29:24.967Z,99.90
2023-02-13T06:31:26.895Z,99.90
2023-02-13T06:33:28.663Z,99.90
2023-02-13T06:35:30.367Z,99.90
2023-02-13T06:37:32.178Z,99.90
2023-02-13T06:39:33.844Z,99.90
2023-02-13T06:41:35.533Z,99.90
2023-02-13T06:43:39.177Z,99.90
2023-02-13T06:45:41.912Z,99.90
2023-02-13T06:47:45.452Z,99.90
2023-02-13T06:49:47.105Z,99.90
2023-02-13T06:51:48.744Z,99.90
2023-02-13T06:53:50.594Z,99.90
2023-02-13T06:55:53.528Z,99.90
2023-02-13T06:57:55.193Z,99.90
2023-02-13T06:59:56.908Z,99.90
2023-02-13T07:01:58.607Z,99.90
2023-02-13T07:04:00.245Z,99.90
2023-02-13T07:06:01.939Z,99.90
2023-02-13T07:08:03.635Z,99.90
2023-02-13T07:10:07.045Z,99.90
2023-02-13T07:12:08.749Z,99.90
2023-02-13T07:14:10.418Z,99.90
2023-02-13T07:16:12.312Z,99.90
2023-02-13T07:18:14.031Z,99.90
2023-02-13T07:20:15.786Z,99.90
2023-02-13T07:22:17.489Z,99.90
2023-02-13T07:24:19.297Z,99.90
2023-02-13T07:26:21.073Z,86.90
2023-02-13T07:28:22.916Z,45.30
2023-02-13T07:30:24.709Z,1.00
2023-02-13T07:32:26.372Z,1.00
2023-02-13T07:34:28.050Z,1.00
2023-02-13T07:36:29.714Z,1.00
2023-02-13T07:38:32.447Z,1.00
2023-02-13T07:40:34.190Z,1.00
2023-02-13T07:42:35.871Z,1.00
2023-02-13T07:44:37.513Z,1.00
2023-02-13T07:46:39.287Z,1.00
2023-02-13T07:48:40.977Z,99.90
2023-02-13T07:50:42.597Z,99.90
2023-02-13T07:52:44.265Z,1.00
2023-02-13T07:54:48.641Z,1.00
2023-02-13T07:56:50.331Z,99.90
2023-02-13T07:58:53.080Z,99.90
2023-02-13T08:00:54.774Z,99.90
2023-02-13T08:03:02.132Z,48.00
2023-02-13T08:05:03.946Z,27.70
2023-02-13T08:07:05.601Z,66.30
2023-02-13T08:09:26.320Z,99.90
2023-02-13T08:11:51.308Z,99.90
2023-02-13T08:13:52.999Z,1.00
2023-02-13T08:15:54.774Z,99.90
2023-02-13T08:17:56.529Z,1.00
2023-02-13T08:19:58.390Z,1.00
2023-02-13T08:22:01.472Z,99.90
2023-02-13T08:24:03.134Z,99.90
2023-02-13T08:26:05.034Z,1.00
2023-02-13T08:28:06.912Z,99.90
2023-02-13T08:30:10.405Z,99.90
2023-02-13T08:32:12.574Z,94.90
2023-02-13T08:34:14.276Z,13.60
2023-02-13T08:36:15.966Z,61.40
2023-02-13T08:38:17.623Z,1.00
2023-02-13T08:40:19.483Z,1.00
2023-02-13T08:42:21.094Z,99.90
2023-02-13T08:44:22.742Z,1.00
2023-02-13T08:46:24.485Z,1.00
2023-02-13T08:48:27.072Z,1.00
2023-02-13T08:50:28.811Z,1.00
2023-02-13T08:52:30.625Z,1.00
2023-02-13T08:54:34.873Z,1.00
2023-02-13T08:56:36.555Z,1.00
2023-02-13T08:58:38.451Z,99.90
2023-02-13T09:00:40.096Z,99.90
2023-02-13T09:02:41.808Z,99.90
2023-02-13T09:04:43.489Z,99.90
2023-02-13T09:06:45.560Z,3.40
2023-02-13T09:08:47.293Z,1.00
2023-02-13T09:10:56.889Z,1.00
2023-02-13T09:12:59.005Z,1.00
2023-02-13T09:15:00.753Z,1.00
2023-02-13T09:17:03.045Z,1.00
2023-02-13T09:19:04.837Z,1.00
2023-02-13T09:21:08.912Z,99.90
2023-02-13T09:23:10.635Z,1.00
2023-02-13T09:25:12.306Z,1.00
2023-02-13T09:27:13.960Z,1.00
2023-02-13T09:29:15.676Z,1.00
2023-02-13T09:31:20.627Z,1.00
2023-02-13T09:33:22.889Z,99.90
2023-02-13T09:35:24.582Z,99.90
2023-02-13T09:37:27.188Z,99.90
2023-02-13T09:39:29.034Z,99.90
2023-02-13T09:41:40.362Z,99.90
2023-02-13T09:43:55.128Z,99.90
2023-02-13T09:46:13.958Z,99.90
2023-02-13T09:48:34.651Z,99.90
2023-02-13T09:50:36.456Z,99.90
2023-02-13T09:52:39.610Z,99.90
2023-02-13T09:54:41.379Z,99.90
2023-02-13T09:57:19.252Z,99.90
2023-02-13T09:59:44.003Z,99.90
2023-02-13T10:01:48.930Z,99.90
2023-02-13T10:04:08.018Z,99.90
2023-02-13T10:06:31.626Z,99.90
2023-02-13T10:09:00.336Z,99.90
2023-02-13T10:11:26.856Z,99.90
2023-02-13T10:13:31.679Z,99.90
2023-02-13T10:16:06.129Z,99.90
2023-02-13T10:18:22.242Z,99.90
2023-02-13T10:20:36.500Z,99.90
2023-02-13T10:22:48.853Z,99.90
2023-02-13T10:25:08.141Z,99.90
2023-02-13T10:27:21.633Z,99.90
2023-02-13T10:29:41.956Z,99.90
2023-02-13T10:31:48.175Z,99.90
2023-02-13T10:33:52.548Z,99.90
2023-02-13T10:36:02.653Z,99.90
2023-02-13T10:38:15.684Z,99.90
2023-02-13T10:40:19.029Z,99.90
2023-02-13T10:42:31.389Z,99.90
2023-02-13T10:44:52.781Z,99.90
2023-02-13T10:47:06.427Z,99.90
2023-02-13T10:49:30.634Z,99.90
2023-02-13T10:51:33.621Z,99.90
2023-02-13T10:54:09.992Z,99.90
2023-02-13T10:56:38.569Z,99.90
2023-02-13T10:58:58.959Z,99.90
2023-02-13T11:01:22.143Z,1.00
2023-02-13T11:03:26.961Z,1.00
2023-02-13T11:05:41.853Z,1.00
2023-02-13T11:07:46.841Z,1.00
2023-02-13T11:09:51.910Z,1.00
2023-02-13T11:11:54.153Z,99.90
2023-02-13T11:14:13.876Z,99.90
2023-02-13T11:16:15.804Z,99.90
2023-02-13T11:18:22.098Z,99.90
2023-02-13T11:20:40.301Z,99.90
2023-02-13T11:22:42.883Z,99.90
2023-02-13T11:24:55.967Z,99.90
2023-02-13T11:27:09.224Z,99.90
2023-02-13T11:29:25.969Z,99.90
2023-02-13T11:31:37.984Z,99.90
2023-02-13T11:33:40.123Z,1.00
2023-02-13T11:35:41.773Z,1.00
2023-02-13T11:37:43.448Z,1.00
2023-02-13T11:39:49.525Z,53.00
2023-02-13T11:41:52.872Z,99.90
2023-02-13T11:44:01.302Z,1.00
2023-02-13T11:46:04.714Z,99.90
2023-02-13T11:48:19.768Z,60.80
2023-02-13T11:50:35.100Z,31.00
2023-02-13T11:52:37.230Z,1.00
2023-02-13T11:54:40.633Z,1.00
2023-02-13T11:57:03.982Z,99.90
2023-02-13T11:59:13.440Z,99.90
2023-02-13T12:01:21.194Z,99.90
2023-02-13T12:03:29.042Z,99.90
2023-02-13T12:05:30.965Z,99.90
2023-02-13T12:07:33.644Z,99.90
2023-02-13T12:09:38.564Z,99.90
2023-02-13T12:11:50.128Z,1.00
2023-02-13T12:13:52.303Z,49.40
2023-02-13T12:16:08.489Z,99.90
2023-02-13T12:18:10.092Z,99.90
2023-02-13T12:20:14.485Z,1.00
2023-02-13T12:22:28.786Z,1.00
2023-02-13T12:24:46.092Z,1.00
2023-02-13T12:26:59.141Z,1.00
2023-02-13T12:29:23.124Z,1.00
2023-02-13T12:32:00.486Z,1.00
2023-02-13T12:34:08.018Z,1.00
2023-02-13T12:36:27.903Z,1.00
2023-02-13T12:38:53.488Z,1.00
2023-02-13T12:41:13.658Z,1.00
2023-02-13T12:43:36.374Z,1.00
2023-02-13T12:45:46.728Z,1.00
2023-02-13T12:48:23.528Z,1.00
2023-02-13T12:50:34.239Z,1.00
2023-02-13T12:53:04.861Z,1.00
2023-02-13T12:55:31.031Z,99.90
2023-02-13T12:58:13.562Z,1.00
2023-02-13T13:00:48.373Z,1.00
2023-02-13T13:03:29.289Z,1.00
2023-02-13T13:05:43.265Z,1.00
2023-02-13T13:07:45.063Z,1.00
2023-02-13T13:10:15.644Z,1.00
2023-02-13T13:12:26.304Z,99.90
2023-02-13T13:15:05.777Z,99.90
2023-02-13T13:17:28.224Z,99.90
2023-02-13T13:19:50.859Z,99.90
2023-02-13T13:22:14.592Z,99.90
2023-02-13T13:24:43.435Z,99.90
2023-02-13T13:26:49.702Z,99.90
2023-02-13T13:28:56.404Z,99.90
2023-02-13T13:30:59.250Z,99.90
2023-02-13T13:33:03.432Z,99.90
2023-02-13T13:35:06.002Z,99.90
2023-02-13T13:37:27.020Z,99.90
2023-02-13T13:39:54.046Z,99.90
2023-02-13T13:42:13.312Z,99.90
2023-02-13T13:44:22.340Z,99.90
2023-02-13T13:46:49.126Z,99.90
2023-02-13T13:49:14.421Z,99.90
2023-02-13T13:51:18.392Z,99.90
2023-02-13T13:53:23.397Z,99.90
2023-02-13T13:55:46.849Z,99.90
2023-02-13T13:57:57.763Z,99.90
2023-02-13T14:00:14.206Z,99.90
2023-02-13T14:02:37.343Z,99.90
2023-02-13T14:04:41.588Z,99.90
2023-02-13T14:06:46.041Z,99.90
2023-02-13T14:08:56.157Z,99.90
2023-02-13T14:10:58.271Z,99.90
2023-02-13T14:13:02.574Z,99.90
2023-02-13T14:15:04.779Z,99.90
2023-02-13T14:17:13.759Z,99.90
2023-02-13T14:19:38.382Z,99.90
2023-02-13T14:21:40.113Z,99.90
2023-02-13T14:23:50.592Z,99.90
2023-02-13T14:26:16.840Z,99.90
2023-02-13T14:28:23.505Z,99.90
2023-02-13T14:30:32.730Z,99.90
2023-02-13T14:32:36.787Z,99.90
2023-02-13T14:34:40.320Z,99.90
2023-02-13T14:36:47.815Z,99.90
2023-02-13T14:38:58.291Z,99.90
2023-02-13T14:41:00.336Z,99.90
2023-02-13T14:43:29.030Z,99.90
2023-02-13T14:45:54.644Z,99.90
2023-02-13T14:47:58.397Z,99.90
2023-02-13T14:50:02.594Z,99.90
2023-02-13T14:52:15.859Z,99.90
2023-02-13T14:54:34.045Z,99.90
2023-02-13T14:56:37.920Z,99.90
2023-02-13T14:58:49.790Z,99.90
2023-02-13T15:01:11.373Z,1.00
2023-02-13T15:03:31.472Z,1.00
2023-02-13T15:05:35.170Z,1.00
2023-02-13T15:07:44.229Z,1.00
2023-02-13T15:09:56.018Z,99.90
2023-02-13T15:11:57.877Z,1.00
2023-02-13T15:14:14.804Z,99.90
2023-02-13T15:16:17.935Z,1.00
2023-02-13T15:18:26.243Z,1.00
2023-02-13T15:20:33.940Z,1.00
2023-02-13T15:22:46.807Z,99.90
2023-02-13T15:24:49.790Z,48.90
2023-02-13T15:27:00.910Z,99.90
2023-02-13T15:29:27.921Z,1.00
2023-02-13T15:31:33.532Z,1.00
2023-02-13T15:33:44.798Z,67.50
2023-02-13T15:35:46.717Z,99.90
2023-02-13T15:37:48.436Z,99.90
2023-02-13T15:39:50.265Z,1.00
2023-02-13T15:42:03.037Z,1.00
2023-02-13T15:44:05.552Z,1.00
2023-02-13T15:46:24.409Z,90.40
2023-02-13T15:48:26.196Z,99.90
2023-02-13T15:50:33.943Z,99.90
2023-02-13T15:52:39.277Z,99.90
2023-02-13T15:54:52.236Z,99.90
2023-02-13T15:56:56.996Z,99.90
2023-02-13T15:59:00.847Z,99.90
2023-02-13T16:01:10.148Z,99.90
2023-02-13T16:03:17.682Z,1.00
2023-02-13T16:05:29.333Z,1.00
2023-02-13T16:07:51.655Z,1.00
2023-02-13T16:10:16.236Z,1.00
2023-02-13T16:12:26.851Z,1.00
2023-02-13T16:14:31.682Z,1.00
2023-02-13T16:16:51.361Z,1.00
2023-02-13T16:18:53.557Z,1.00
2023-02-13T16:20:56.698Z,1.00
2023-02-13T16:23:04.904Z,1.00
2023-02-13T16:25:12.731Z,1.00
2023-02-13T16:27:15.711Z,1.00
2023-02-13T16:29:21.100Z,1.00
2023-02-13T16:31:23.527Z,1.00
2023-02-13T16:33:31.954Z,1.00
2023-02-13T16:35:37.934Z,1.00
2023-02-13T16:37:50.403Z,1.00
2023-02-13T16:39:52.339Z,1.00
2023-02-13T16:41:54.400Z,1.00
2023-02-13T16:43:58.520Z,8.00
2023-02-13T16:46:32.546Z,21.70
2023-02-13T16:48:35.201Z,29.50
2023-02-13T16:50:36.873Z,45.10
2023-02-13T16:52:38.758Z,57.90
2023-02-13T16:54:58.493Z,67.50
2023-02-13T16:57:13.534Z,82.20
2023-02-13T16:59:23.227Z,93.20
2023-02-13T17:01:24.867Z,99.00
2023-02-13T17:03:26.559Z,99.90
2023-02-13T17:05:28.885Z,99.90
2023-02-13T17:07:33.915Z,99.90
2023-02-13T17:09:35.562Z,99.90
2023-02-13T17:11:37.192Z,99.90
2023-02-13T17:13:38.811Z,99.90
2023-02-13T17:15:46.410Z,99.90
2023-02-13T17:17:48.882Z,99.90
2023-02-13T17:19:50.939Z,99.90
2023-02-13T17:21:54.580Z,99.90
2023-02-13T17:23:56.246Z,99.90
2023-02-13T17:25:58.826Z,99.90
2023-02-13T17:28:07.475Z,99.90
2023-02-13T17:30:24.077Z,99.90
2023-02-13T17:32:27.189Z,99.90
2023-02-13T17:34:28.870Z,99.90
2023-02-13T17:36:30.508Z,99.90
2023-02-13T17:38:32.135Z,99.90
2023-02-13T17:40:33.829Z,99.90
2023-02-13T17:42:36.401Z,99.90
2023-02-13T17:44:38.044Z,99.90
2023-02-13T17:46:40.015Z,99.90
2023-02-13T17:48:41.616Z,99.90
2023-02-13T17:50:43.332Z,99.90
2023-02-13T17:52:48.755Z,99.90
2023-02-13T17:54:50.624Z,99.90
2023-02-13T17:56:52.302Z,99.90
2023-02-13T17:58:54.065Z,99.90
2023-02-13T18:00:56.077Z,99.90
2023-02-13T18:02:59.725Z,99.90
2023-02-13T18:05:01.407Z,99.90
2023-02-13T18:07:03.200Z,99.90
2023-02-13T18:09:04.849Z,99.90
2023-02-13T18:11:10.996Z,99.90
2023-02-13T18:13:12.912Z,99.90
2023-02-13T18:15:15.068Z,99.90
2023-02-13T18:17:18.138Z,99.90
2023-02-13T18:19:19.812Z,99.90
2023-02-13T18:21:24.562Z,99.90
2023-02-13T18:23:26.305Z,99.90
2023-02-13T18:25:29.064Z,99.90
2023-02-13T18:27:30.826Z,99.90
2023-02-13T18:29:32.570Z,99.90
2023-02-13T18:31:34.417Z,99.90
2023-02-13T18:33:36.392Z,99.90
2023-02-13T18:35:38.139Z,99.90
2023-02-13T18:37:39.761Z,99.90
2023-02-13T18:39:41.662Z,99.90
2023-02-13T18:41:44.354Z,99.90
2023-02-13T18:43:46.348Z,99.90
2023-02-13T18:45:48.191Z,99.90
2023-02-13T18:47:49.942Z,99.90
2023-02-13T18:49:51.887Z,99.90
2023-02-13T18:51:53.924Z,99.90
2023-02-13T18:53:55.647Z,99.90
2023-02-13T18:56:06.076Z,99.90
2023-02-13T18:58:08.169Z,99.90
2023-02-13T19:00:10.921Z,99.90
2023-02-13T19:02:12.670Z,99.90
2023-02-13T19:04:14.542Z,99.90
2023-02-13T19:06:21.897Z,99.90
2023-02-13T19:08:23.585Z,99.90
2023-02-13T19:10:25.248Z,99.90
2023-02-13T19:12:27.191Z,99.90
2023-02-13T19:14:29.216Z,99.90
2023-02-13T19:16:32.302Z,99.90
2023-02-13T19:18:38.915Z,99.90
2023-02-13T19:20:41.313Z,99.90
2023-02-13T19:22:43.288Z,99.90
2023-02-13T19:24:45.110Z,99.90
2023-02-13T19:26:47.325Z,99.90
2023-02-13T19:28:49.477Z,99.90
2023-02-13T19:30:51.279Z,99.90
2023-02-13T19:32:54.668Z,99.90
2023-02-13T19:34:56.624Z,99.90
2023-02-13T19:36:58.730Z,99.90
2023-02-13T19:39:03.745Z,99.90
2023-02-13T19:41:06.772Z,99.90
2023-02-13T19:43:08.395Z,99.90
2023-02-13T19:45:10.453Z,99.90
2023-02-13T19:47:12.103Z,99.90
2023-02-13T19:49:13.796Z,99.90
2023-02-13T19:51:19.157Z,99.90
2023-02-13T19:53:20.813Z,99.90
2023-02-13T19:55:24.621Z,99.90
2023-02-13T19:57:26.591Z,99.90
2023-02-13T19:59:28.459Z,99.90
2023-02-13T20:01:30.610Z,99.90
2023-02-13T20:03:32.615Z,99.90
2023-02-13T20:05:41.231Z,99.90
2023-02-13T20:07:42.935Z,99.90
2023-02-13T20:09:44.912Z,99.90
2023-02-13T20:11:47.038Z,99.90
2023-02-13T20:13:52.657Z,99.90
2023-02-13T20:15:55.149Z,99.90
2023-02-13T20:17:56.980Z,99.90
2023-02-13T20:19:58.943Z,99.90
2023-02-13T20:22:01.666Z,99.90
2023-02-13T20:24:04.337Z,99.90
2023-02-13T20:26:08.261Z,99.90
2023-02-13T20:28:11.474Z,99.90
2023-02-13T20:30:16.154Z,99.90
2023-02-13T20:32:17.954Z,99.90
2023-02-13T20:34:19.675Z,99.90
2023-02-13T20:36:24.161Z,99.90
2023-02-13T20:38:25.932Z,99.90
2023-02-13T20:40:27.783Z,99.90
2023-02-13T20:42:33.138Z,99.90
2023-02-13T20:44:34.794Z,99.90
2023-02-13T20:46:38.548Z,99.90
2023-02-13T20:48:40.886Z,99.90
2023-02-13T20:50:42.527Z,99.90
2023-02-13T20:52:44.201Z,99.90
2023-02-13T20:54:47.036Z,99.90
2023-02-13T20:56:49.060Z,99.90
2023-02-13T20:58:52.577Z,99.90
2023-02-13T21:00:54.242Z,99.90
2023-02-13T21:02:55.943Z,99.90
2023-02-13T21:04:57.644Z,99.90
2023-02-13T21:06:59.424Z,99.90
2023-02-13T21:09:02.621Z,99.90
2023-02-13T21:11:08.044Z,99.90
2023-02-13T21:13:10.499Z,99.90
2023-02-13T21:15:12.215Z,99.90
2023-02-13T21:17:13.898Z,99.90
2023-02-13T21:19:19.242Z,99.90
2023-02-13T21:21:22.879Z,99.90
2023-02-13T21:23:24.583Z,99.90
2023-02-13T21:25:26.408Z,99.90
2023-02-13T21:27:28.481Z,99.90
2023-02-13T21:29:30.181Z,99.90
2023-02-13T21:31:35.462Z,99.90
2023-02-13T21:33:37.162Z,99.90
2023-02-13T21:35:38.864Z,99.90
2023-02-13T21:37:40.722Z,99.90
2023-02-13T21:39:42.377Z,99.90
2023-02-13T21:41:45.983Z,99.90
2023-02-13T21:43:49.550Z,99.90
2023-02-13T21:45:51.271Z,99.90
2023-02-13T21:47:56.570Z,99.90
2023-02-13T21:49:58.356Z,99.90
2023-02-13T21:51:59.984Z,99.90
2023-02-13T21:54:02.798Z,99.90
2023-02-13T21:56:10.629Z,99.90
2023-02-13T21:58:12.277Z,99.90
2023-02-13T22:00:15.569Z,99.90
2023-02-13T22:02:18.242Z,99.90
2023-02-13T22:04:20.087Z,99.90
2023-02-13T22:06:22.036Z,99.90
2023-02-13T22:08:23.744Z,99.90
2023-02-13T22:10:25.457Z,99.90
2023-02-13T22:12:28.204Z,99.90
2023-02-13T22:14:29.873Z,99.90
2023-02-13T22:16:33.568Z,99.90
2023-02-13T22:18:38.572Z,99.90
2023-02-13T22:20:40.388Z,99.90
2023-02-13T22:22:42.033Z,99.90
2023-02-13T22:24:43.652Z,99.90
2023-02-13T22:26:45.413Z,99.90
2023-02-13T22:28:47.315Z,99.90
2023-02-13T22:30:49.077Z,99.90
2023-02-13T22:32:50.922Z,99.90
2023-02-13T22:34:52.541Z,99.90
2023-02-13T22:36:55.010Z,99.90
2023-02-13T22:38:56.623Z,99.90
2023-02-13T22:41:05.045Z,99.90
2023-02-13T22:43:07.334Z,99.90
2023-02-13T22:45:09.401Z,99.90
2023-02-13T22:47:11.365Z,99.90
2023-02-13T22:49:13.005Z,99.90
2023-02-13T22:51:17.436Z,99.90
2023-02-13T22:53:19.051Z,99.90
2023-02-13T22:55:20.718Z,99.90
2023-02-13T22:57:22.334Z,99.90
2023-02-13T22:59:24.022Z,99.90
2023-02-13T23:01:28.108Z,99.90
2023-02-13T23:03:32.765Z,99.90
2023-02-13T23:05:34.399Z,99.90
2023-02-13T23:07:36.089Z,99.90
2023-02-13T23:09:37.718Z,99.90
2023-02-13T23:11:58.082Z,99.90
2023-02-13T23:14:00.349Z,99.90
2023-02-13T23:16:02.037Z,99.90
2023-02-13T23:18:13.613Z,99.90
2023-02-13T23:20:15.797Z,99.90
2023-02-13T23:22:17.596Z,99.90
2023-02-13T23:24:19.265Z,99.90
2023-02-13T23:26:20.977Z,99.90
2023-02-13T23:28:22.600Z,99.90
2023-02-13T23:30:24.916Z,99.90
2023-02-13T23:32:27.367Z,99.90
2023-02-13T23:34:29.045Z,99.90
2023-02-13T23:36:30.762Z,99.90
2023-02-13T23:38:32.420Z,99.90
2023-02-13T23:40:34.048Z,99.90
2023-02-13T23:42:35.745Z,99.90
2023-02-13T23:44:37.409Z,99.90
2023-02-13T23:46:39.207Z,99.90
2023-02-13T23:48:40.954Z,99.90
2023-02-13T23:50:42.622Z,99.90
2023-02-13T23:52:44.259Z,99.90
2023-02-13T23:54:46.080Z,99.90
2023-02-13T23:56:50.274Z,99.90
2023-02-13T23:58:52.315Z,99.90
